sensor_id;sensor_type;location;lat;lon;timestamp;pressure;altitude;pressure_sealevel;temperature;humidity
75740;BME280;64357;51.344;6.550;2023-04-15T00:01:45;100285.91;;;7.27;73.20
75740;BME280;64357;51.344;6.550;2023-04-15T00:04:13;100284.88;;;7.34;72.87
75740;BME280;64357;51.344;6.550;2023-04-15T00:06:41;100281.19;;;7.39;73.29
75740;BME280;64357;51.344;6.550;2023-04-15T00:09:06;100283.59;;;7.46;72.02
75740;BME280;64357;51.344;6.550;2023-04-15T00:11:31;100281.00;;;7.37;72.35
75740;BME280;64357;51.344;6.550;2023-04-15T00:13:57;100276.50;;;7.35;73.31
75740;BME280;64357;51.344;6.550;2023-04-15T00:16:23;100276.16;;;7.23;73.70
75740;BME280;64357;51.344;6.550;2023-04-15T00:18:49;100278.69;;;7.23;73.32
75740;BME280;64357;51.344;6.550;2023-04-15T00:21:14;100285.84;;;7.18;73.38
75740;BME280;64357;51.344;6.550;2023-04-15T00:23:42;100282.25;;;7.16;74.09
75740;BME280;64357;51.344;6.550;2023-04-15T00:26:13;100268.59;;;7.07;73.73
75740;BME280;64357;51.344;6.550;2023-04-15T00:28:39;100272.91;;;7.08;73.78
75740;BME280;64357;51.344;6.550;2023-04-15T00:31:07;100285.06;;;7.11;73.64
75740;BME280;64357;51.344;6.550;2023-04-15T00:33:35;100277.59;;;7.12;72.78
75740;BME280;64357;51.344;6.550;2023-04-15T00:36:01;100286.72;;;7.19;72.68
75740;BME280;64357;51.344;6.550;2023-04-15T00:38:28;100283.81;;;7.07;73.28
75740;BME280;64357;51.344;6.550;2023-04-15T00:40:53;100282.13;;;6.99;74.53
75740;BME280;64357;51.344;6.550;2023-04-15T00:43:19;100273.41;;;6.88;74.26
75740;BME280;64357;51.344;6.550;2023-04-15T00:45:45;100280.75;;;6.94;73.65
75740;BME280;64357;51.344;6.550;2023-04-15T00:48:13;100283.03;;;7.00;73.33
75740;BME280;64357;51.344;6.550;2023-04-15T00:50:42;100287.50;;;7.02;73.11
75740;BME280;64357;51.344;6.550;2023-04-15T00:53:07;100276.56;;;6.94;73.84
75740;BME280;64357;51.344;6.550;2023-04-15T00:55:33;100285.09;;;6.95;73.49
75740;BME280;64357;51.344;6.550;2023-04-15T00:58:00;100282.41;;;6.93;73.64
75740;BME280;64357;51.344;6.550;2023-04-15T01:00:26;100277.72;;;6.89;74.05
75740;BME280;64357;51.344;6.550;2023-04-15T01:02:51;100280.28;;;6.89;74.15
75740;BME280;64357;51.344;6.550;2023-04-15T01:05:17;100285.69;;;6.92;74.25
75740;BME280;64357;51.344;6.550;2023-04-15T01:07:46;100278.78;;;6.91;74.89
75740;BME280;64357;51.344;6.550;2023-04-15T01:10:11;100284.56;;;6.82;74.26
75740;BME280;64357;51.344;6.550;2023-04-15T01:12:37;100286.28;;;6.74;74.87
75740;BME280;64357;51.344;6.550;2023-04-15T01:15:03;100293.50;;;6.62;76.03
75740;BME280;64357;51.344;6.550;2023-04-15T01:17:32;100285.16;;;6.48;77.16
75740;BME280;64357;51.344;6.550;2023-04-15T01:19:57;100287.56;;;6.46;76.98
75740;BME280;64357;51.344;6.550;2023-04-15T01:22:28;100287.56;;;6.46;76.63
75740;BME280;64357;51.344;6.550;2023-04-15T01:25:00;100286.88;;;6.56;77.05
75740;BME280;64357;51.344;6.550;2023-04-15T01:27:30;100284.16;;;6.70;75.83
75740;BME280;64357;51.344;6.550;2023-04-15T01:29:56;100283.44;;;6.71;75.30
75740;BME280;64357;51.344;6.550;2023-04-15T01:32:22;100283.03;;;6.59;76.33
75740;BME280;64357;51.344;6.550;2023-04-15T01:34:50;100274.88;;;6.46;76.13
75740;BME280;64357;51.344;6.550;2023-04-15T01:37:16;100275.91;;;6.48;76.16
75740;BME280;64357;51.344;6.550;2023-04-15T01:39:44;100273.63;;;6.43;76.28
75740;BME280;64357;51.344;6.550;2023-04-15T01:42:11;100279.34;;;6.49;76.93
75740;BME280;64357;51.344;6.550;2023-04-15T01:44:37;100273.22;;;6.47;76.63
75740;BME280;64357;51.344;6.550;2023-04-15T01:47:02;100270.78;;;6.39;76.65
75740;BME280;64357;51.344;6.550;2023-04-15T01:49:27;100286.31;;;6.43;76.84
75740;BME280;64357;51.344;6.550;2023-04-15T01:51:53;100290.31;;;6.25;77.64
75740;BME280;64357;51.344;6.550;2023-04-15T01:54:21;100285.25;;;6.09;78.34
75740;BME280;64357;51.344;6.550;2023-04-15T01:56:46;100292.94;;;6.02;78.80
75740;BME280;64357;51.344;6.550;2023-04-15T01:59:12;100292.38;;;6.04;78.44
75740;BME280;64357;51.344;6.550;2023-04-15T02:01:37;100279.94;;;6.30;77.19
75740;BME280;64357;51.344;6.550;2023-04-15T02:04:03;100283.22;;;6.29;77.42
75740;BME280;64357;51.344;6.550;2023-04-15T02:06:29;100289.28;;;6.23;77.11
75740;BME280;64357;51.344;6.550;2023-04-15T02:08:57;100283.69;;;6.18;77.21
75740;BME280;64357;51.344;6.550;2023-04-15T02:11:28;100294.97;;;6.45;76.83
75740;BME280;64357;51.344;6.550;2023-04-15T02:13:55;100295.00;;;6.29;77.89
75740;BME280;64357;51.344;6.550;2023-04-15T02:16:23;100286.16;;;6.25;77.66
75740;BME280;64357;51.344;6.550;2023-04-15T02:18:49;100292.78;;;6.32;77.46
75740;BME280;64357;51.344;6.550;2023-04-15T02:21:16;100290.97;;;6.15;78.40
75740;BME280;64357;51.344;6.550;2023-04-15T02:23:44;100285.59;;;6.12;77.95
75740;BME280;64357;51.344;6.550;2023-04-15T02:26:12;100295.72;;;6.12;78.63
75740;BME280;64357;51.344;6.550;2023-04-15T02:28:40;100301.63;;;6.20;77.87
75740;BME280;64357;51.344;6.550;2023-04-15T02:31:06;100301.22;;;6.24;77.35
75740;BME280;64357;51.344;6.550;2023-04-15T02:33:34;100303.59;;;6.22;77.80
75740;BME280;64357;51.344;6.550;2023-04-15T02:36:03;100303.34;;;6.28;76.99
75740;BME280;64357;51.344;6.550;2023-04-15T02:38:29;100303.00;;;6.25;77.41
75740;BME280;64357;51.344;6.550;2023-04-15T02:40:58;100307.03;;;6.23;76.98
75740;BME280;64357;51.344;6.550;2023-04-15T02:43:23;100309.88;;;6.10;78.73
75740;BME280;64357;51.344;6.550;2023-04-15T02:45:49;100316.75;;;6.11;78.67
75740;BME280;64357;51.344;6.550;2023-04-15T02:48:15;100303.72;;;6.08;78.85
75740;BME280;64357;51.344;6.550;2023-04-15T02:50:43;100308.47;;;6.05;78.46
75740;BME280;64357;51.344;6.550;2023-04-15T02:53:08;100303.72;;;6.08;78.27
75740;BME280;64357;51.344;6.550;2023-04-15T02:55:36;100315.44;;;6.14;78.69
75740;BME280;64357;51.344;6.550;2023-04-15T02:58:01;100316.41;;;6.08;79.20
75740;BME280;64357;51.344;6.550;2023-04-15T03:00:27;100305.44;;;6.00;79.64
75740;BME280;64357;51.344;6.550;2023-04-15T03:02:58;100314.97;;;6.10;79.34
75740;BME280;64357;51.344;6.550;2023-04-15T03:05:23;100313.63;;;6.13;79.08
75740;BME280;64357;51.344;6.550;2023-04-15T03:07:52;100319.59;;;6.14;79.75
75740;BME280;64357;51.344;6.550;2023-04-15T03:10:18;100324.16;;;6.09;79.40
75740;BME280;64357;51.344;6.550;2023-04-15T03:12:44;100323.84;;;6.06;79.65
75740;BME280;64357;51.344;6.550;2023-04-15T03:15:09;100324.00;;;6.08;80.20
75740;BME280;64357;51.344;6.550;2023-04-15T03:17:35;100325.34;;;6.04;79.84
75740;BME280;64357;51.344;6.550;2023-04-15T03:20:01;100333.09;;;6.06;80.46
75740;BME280;64357;51.344;6.550;2023-04-15T03:22:31;100331.31;;;6.05;79.98
75740;BME280;64357;51.344;6.550;2023-04-15T03:24:57;100331.13;;;6.03;80.11
75740;BME280;64357;51.344;6.550;2023-04-15T03:27:23;100332.34;;;6.07;80.74
75740;BME280;64357;51.344;6.550;2023-04-15T03:29:48;100340.28;;;5.94;81.10
75740;BME280;64357;51.344;6.550;2023-04-15T03:32:13;100336.13;;;5.87;80.52
75740;BME280;64357;51.344;6.550;2023-04-15T03:34:41;100334.66;;;5.89;81.38
75740;BME280;64357;51.344;6.550;2023-04-15T03:37:07;100341.72;;;5.92;81.66
75740;BME280;64357;51.344;6.550;2023-04-15T03:39:33;100338.84;;;5.89;81.20
75740;BME280;64357;51.344;6.550;2023-04-15T03:41:58;100336.91;;;5.79;81.43
75740;BME280;64357;51.344;6.550;2023-04-15T03:44:28;100339.91;;;5.91;82.01
75740;BME280;64357;51.344;6.550;2023-04-15T03:46:53;100352.63;;;5.84;82.35
75740;BME280;64357;51.344;6.550;2023-04-15T03:49:19;100344.63;;;5.88;82.31
75740;BME280;64357;51.344;6.550;2023-04-15T03:51:47;100347.00;;;5.86;82.36
75740;BME280;64357;51.344;6.550;2023-04-15T03:54:14;100354.63;;;5.86;81.88
75740;BME280;64357;51.344;6.550;2023-04-15T03:56:42;100337.50;;;5.77;82.49
75740;BME280;64357;51.344;6.550;2023-04-15T03:59:08;100355.16;;;5.84;82.84
75740;BME280;64357;51.344;6.550;2023-04-15T04:01:34;100355.38;;;5.78;83.37
75740;BME280;64357;51.344;6.550;2023-04-15T04:04:04;100354.09;;;5.82;82.41
75740;BME280;64357;51.344;6.550;2023-04-15T04:06:29;100354.84;;;5.81;82.62
75740;BME280;64357;51.344;6.550;2023-04-15T04:08:55;100361.66;;;5.89;83.08
75740;BME280;64357;51.344;6.550;2023-04-15T04:11:20;100368.50;;;5.90;83.22
75740;BME280;64357;51.344;6.550;2023-04-15T04:13:46;100363.81;;;5.86;82.54
75740;BME280;64357;51.344;6.550;2023-04-15T04:16:11;100373.25;;;5.87;83.19
75740;BME280;64357;51.344;6.550;2023-04-15T04:18:36;100368.97;;;5.79;83.71
75740;BME280;64357;51.344;6.550;2023-04-15T04:21:05;100368.91;;;5.86;83.77
75740;BME280;64357;51.344;6.550;2023-04-15T04:23:30;100376.66;;;5.95;83.69
75740;BME280;64357;51.344;6.550;2023-04-15T04:25:56;100384.09;;;5.93;83.22
75740;BME280;64357;51.344;6.550;2023-04-15T04:28:22;100388.78;;;5.90;83.39
75740;BME280;64357;51.344;6.550;2023-04-15T04:30:47;100396.97;;;5.87;83.97
75740;BME280;64357;51.344;6.550;2023-04-15T04:33:15;100389.75;;;5.83;83.95
75740;BME280;64357;51.344;6.550;2023-04-15T04:35:43;100399.16;;;5.84;84.18
75740;BME280;64357;51.344;6.550;2023-04-15T04:38:08;100396.09;;;5.80;84.14
75740;BME280;64357;51.344;6.550;2023-04-15T04:40:34;100401.91;;;5.79;84.58
75740;BME280;64357;51.344;6.550;2023-04-15T04:43:00;100394.53;;;5.73;84.41
75740;BME280;64357;51.344;6.550;2023-04-15T04:45:30;100403.94;;;5.74;85.05
75740;BME280;64357;51.344;6.550;2023-04-15T04:48:01;100388.72;;;5.74;84.49
75740;BME280;64357;51.344;6.550;2023-04-15T04:50:26;100397.94;;;5.81;84.75
75740;BME280;64357;51.344;6.550;2023-04-15T04:52:52;100411.16;;;5.78;85.43
75740;BME280;64357;51.344;6.550;2023-04-15T04:55:19;100398.31;;;5.77;85.07
75740;BME280;64357;51.344;6.550;2023-04-15T04:57:45;100407.09;;;5.87;84.88
75740;BME280;64357;51.344;6.550;2023-04-15T05:00:11;100420.00;;;5.82;85.24
75740;BME280;64357;51.344;6.550;2023-04-15T05:02:37;100422.69;;;5.83;85.17
75740;BME280;64357;51.344;6.550;2023-04-15T05:05:08;100415.09;;;5.83;85.14
75740;BME280;64357;51.344;6.550;2023-04-15T05:07:34;100424.81;;;5.95;84.74
75740;BME280;64357;51.344;6.550;2023-04-15T05:09:59;100423.69;;;6.00;84.80
75740;BME280;64357;51.344;6.550;2023-04-15T05:12:27;100418.94;;;6.03;84.62
75740;BME280;64357;51.344;6.550;2023-04-15T05:14:55;100423.34;;;5.97;84.16
75740;BME280;64357;51.344;6.550;2023-04-15T05:17:20;100431.31;;;6.00;84.84
75740;BME280;64357;51.344;6.550;2023-04-15T05:19:50;100432.03;;;5.99;84.80
75740;BME280;64357;51.344;6.550;2023-04-15T05:22:17;100435.66;;;6.01;84.76
75740;BME280;64357;51.344;6.550;2023-04-15T05:24:45;100434.97;;;5.95;84.85
75740;BME280;64357;51.344;6.550;2023-04-15T05:27:13;100441.13;;;5.89;85.40
75740;BME280;64357;51.344;6.550;2023-04-15T05:29:41;100447.03;;;6.04;85.04
75740;BME280;64357;51.344;6.550;2023-04-15T05:32:09;100454.59;;;6.11;85.25
75740;BME280;64357;51.344;6.550;2023-04-15T05:34:35;100457.84;;;6.10;85.09
75740;BME280;64357;51.344;6.550;2023-04-15T05:37:03;100461.44;;;6.12;85.01
75740;BME280;64357;51.344;6.550;2023-04-15T05:39:29;100461.91;;;6.24;85.17
75740;BME280;64357;51.344;6.550;2023-04-15T05:41:56;100456.66;;;6.23;84.77
75740;BME280;64357;51.344;6.550;2023-04-15T05:44:24;100462.19;;;6.34;84.75
75740;BME280;64357;51.344;6.550;2023-04-15T05:46:50;100459.22;;;6.38;84.66
75740;BME280;64357;51.344;6.550;2023-04-15T05:49:21;100462.94;;;6.49;84.57
75740;BME280;64357;51.344;6.550;2023-04-15T05:51:47;100461.81;;;6.54;84.64
75740;BME280;64357;51.344;6.550;2023-04-15T05:54:12;100470.75;;;6.66;84.20
75740;BME280;64357;51.344;6.550;2023-04-15T05:56:38;100473.38;;;6.75;83.79
75740;BME280;64357;51.344;6.550;2023-04-15T05:59:06;100475.59;;;6.88;83.47
75740;BME280;64357;51.344;6.550;2023-04-15T06:01:35;100466.09;;;6.94;82.97
75740;BME280;64357;51.344;6.550;2023-04-15T06:04:00;100481.16;;;7.08;83.13
75740;BME280;64357;51.344;6.550;2023-04-15T06:06:28;100488.06;;;7.25;82.55
75740;BME280;64357;51.344;6.550;2023-04-15T06:08:53;100486.50;;;7.34;82.82
75740;BME280;64357;51.344;6.550;2023-04-15T06:11:20;100493.53;;;7.37;81.57
75740;BME280;64357;51.344;6.550;2023-04-15T06:13:46;100491.69;;;7.27;82.11
75740;BME280;64357;51.344;6.550;2023-04-15T06:16:11;100504.09;;;7.48;81.73
75740;BME280;64357;51.344;6.550;2023-04-15T06:18:37;100496.47;;;7.48;82.20
75740;BME280;64357;51.344;6.550;2023-04-15T06:21:06;100507.88;;;7.52;82.05
75740;BME280;64357;51.344;6.550;2023-04-15T06:23:35;100506.53;;;7.56;81.22
75740;BME280;64357;51.344;6.550;2023-04-15T06:26:01;100520.88;;;7.55;82.01
75740;BME280;64357;51.344;6.550;2023-04-15T06:28:26;100513.44;;;7.57;81.85
75740;BME280;64357;51.344;6.550;2023-04-15T06:30:52;100523.19;;;7.61;81.70
75740;BME280;64357;51.344;6.550;2023-04-15T06:33:18;100519.75;;;7.60;81.72
75740;BME280;64357;51.344;6.550;2023-04-15T06:35:43;100528.00;;;7.66;81.78
75740;BME280;64357;51.344;6.550;2023-04-15T06:38:14;100533.09;;;7.66;82.10
75740;BME280;64357;51.344;6.550;2023-04-15T06:40:39;100542.59;;;7.76;82.28
75740;BME280;64357;51.344;6.550;2023-04-15T06:43:07;100534.97;;;7.76;82.09
75740;BME280;64357;51.344;6.550;2023-04-15T06:45:33;100540.59;;;7.89;80.94
75740;BME280;64357;51.344;6.550;2023-04-15T06:47:58;100543.66;;;8.02;81.48
75740;BME280;64357;51.344;6.550;2023-04-15T06:50:26;100541.06;;;8.10;81.49
75740;BME280;64357;51.344;6.550;2023-04-15T06:52:55;100539.97;;;8.32;80.71
75740;BME280;64357;51.344;6.550;2023-04-15T06:55:21;100546.66;;;8.39;79.97
75740;BME280;64357;51.344;6.550;2023-04-15T06:57:49;100547.22;;;8.36;79.95
75740;BME280;64357;51.344;6.550;2023-04-15T07:00:15;100548.44;;;8.40;80.19
75740;BME280;64357;51.344;6.550;2023-04-15T07:02:40;100558.22;;;8.52;80.32
75740;BME280;64357;51.344;6.550;2023-04-15T07:05:06;100557.06;;;8.58;79.42
75740;BME280;64357;51.344;6.550;2023-04-15T07:07:32;100563.06;;;8.67;79.96
75740;BME280;64357;51.344;6.550;2023-04-15T07:10:00;100544.97;;;8.72;79.91
75740;BME280;64357;51.344;6.550;2023-04-15T07:12:31;100559.56;;;8.91;79.41
75740;BME280;64357;51.344;6.550;2023-04-15T07:14:56;100569.66;;;9.06;78.45
75740;BME280;64357;51.344;6.550;2023-04-15T07:17:22;100568.19;;;9.17;78.66
75740;BME280;64357;51.344;6.550;2023-04-15T07:19:47;100574.56;;;9.38;77.89
75740;BME280;64357;51.344;6.550;2023-04-15T07:22:13;100574.38;;;9.28;78.11
75740;BME280;64357;51.344;6.550;2023-04-15T07:24:41;100576.03;;;9.27;77.88
75740;BME280;64357;51.344;6.550;2023-04-15T07:27:06;100576.34;;;9.39;77.82
75740;BME280;64357;51.344;6.550;2023-04-15T07:29:35;100589.69;;;9.54;77.04
75740;BME280;64357;51.344;6.550;2023-04-15T07:32:00;100586.56;;;9.56;76.58
75740;BME280;64357;51.344;6.550;2023-04-15T07:34:26;100596.75;;;9.65;76.32
75740;BME280;64357;51.344;6.550;2023-04-15T07:36:51;100600.34;;;9.67;75.58
75740;BME280;64357;51.344;6.550;2023-04-15T07:39:19;100606.22;;;9.83;74.88
75740;BME280;64357;51.344;6.550;2023-04-15T07:41:45;100600.66;;;9.79;74.43
75740;BME280;64357;51.344;6.550;2023-04-15T07:44:10;100596.31;;;9.78;74.18
75740;BME280;64357;51.344;6.550;2023-04-15T07:46:36;100607.41;;;10.13;73.47
75740;BME280;64357;51.344;6.550;2023-04-15T07:49:02;100607.59;;;10.14;72.00
75740;BME280;64357;51.344;6.550;2023-04-15T07:51:27;100601.84;;;10.43;70.69
75740;BME280;64357;51.344;6.550;2023-04-15T07:53:56;100611.44;;;10.63;68.63
75740;BME280;64357;51.344;6.550;2023-04-15T07:56:24;100611.16;;;10.51;67.66
75740;BME280;64357;51.344;6.550;2023-04-15T07:58:53;100607.50;;;10.66;66.99
75740;BME280;64357;51.344;6.550;2023-04-15T08:01:19;100613.41;;;10.93;66.73
75740;BME280;64357;51.344;6.550;2023-04-15T08:03:44;100626.91;;;11.01;66.21
75740;BME280;64357;51.344;6.550;2023-04-15T08:06:09;100623.03;;;10.95;68.50
75740;BME280;64357;51.344;6.550;2023-04-15T08:08:35;100626.53;;;10.87;68.62
75740;BME280;64357;51.344;6.550;2023-04-15T08:11:08;100624.25;;;11.27;67.50
75740;BME280;64357;51.344;6.550;2023-04-15T08:13:33;100635.13;;;11.43;65.52
75740;BME280;64357;51.344;6.550;2023-04-15T08:16:24;100623.28;;;11.35;64.38
75740;BME280;64357;51.344;6.550;2023-04-15T08:19:03;100631.59;;;11.32;62.51
75740;BME280;64357;51.344;6.550;2023-04-15T08:21:29;100633.59;;;11.26;61.84
75740;BME280;64357;51.344;6.550;2023-04-15T08:23:55;100645.16;;;11.23;61.21
75740;BME280;64357;51.344;6.550;2023-04-15T08:26:21;100632.13;;;11.11;60.64
75740;BME280;64357;51.344;6.550;2023-04-15T08:28:50;100637.72;;;11.07;61.44
75740;BME280;64357;51.344;6.550;2023-04-15T08:31:17;100652.19;;;11.34;60.44
75740;BME280;64357;51.344;6.550;2023-04-15T08:33:46;100640.72;;;11.39;60.37
75740;BME280;64357;51.344;6.550;2023-04-15T08:36:23;100652.97;;;11.79;60.11
75740;BME280;64357;51.344;6.550;2023-04-15T08:38:58;100659.56;;;12.05;58.23
75740;BME280;64357;51.344;6.550;2023-04-15T08:41:50;100648.97;;;12.29;58.42
75740;BME280;64357;51.344;6.550;2023-04-15T08:44:17;100658.09;;;12.94;56.54
75740;BME280;64357;51.344;6.550;2023-04-15T08:46:45;100662.22;;;12.92;56.76
75740;BME280;64357;51.344;6.550;2023-04-15T08:49:16;100656.38;;;12.74;56.22
75740;BME280;64357;51.344;6.550;2023-04-15T08:51:44;100669.81;;;12.71;56.26
75740;BME280;64357;51.344;6.550;2023-04-15T08:54:13;100664.84;;;12.83;56.06
75740;BME280;64357;51.344;6.550;2023-04-15T08:56:38;100664.25;;;12.86;54.18
75740;BME280;64357;51.344;6.550;2023-04-15T08:59:08;100663.34;;;12.85;54.68
75740;BME280;64357;51.344;6.550;2023-04-15T09:01:40;100676.69;;;12.91;54.82
75740;BME280;64357;51.344;6.550;2023-04-15T09:04:09;100672.19;;;12.60;55.99
75740;BME280;64357;51.344;6.550;2023-04-15T09:06:39;100680.88;;;12.51;56.48
75740;BME280;64357;51.344;6.550;2023-04-15T09:09:17;100680.75;;;12.50;56.97
75740;BME280;64357;51.344;6.550;2023-04-15T09:11:45;100676.56;;;12.61;56.38
75740;BME280;64357;51.344;6.550;2023-04-15T09:14:17;100673.06;;;12.79;57.17
75740;BME280;64357;51.344;6.550;2023-04-15T09:17:17;100683.28;;;13.08;57.05
75740;BME280;64357;51.344;6.550;2023-04-15T09:19:43;100680.03;;;12.90;55.43
75740;BME280;64357;51.344;6.550;2023-04-15T09:22:15;100682.75;;;13.41;53.33
75740;BME280;64357;51.344;6.550;2023-04-15T09:24:43;100692.53;;;13.16;53.92
75740;BME280;64357;51.344;6.550;2023-04-15T09:27:15;100687.09;;;13.42;54.53
75740;BME280;64357;51.344;6.550;2023-04-15T09:29:44;100694.19;;;13.55;54.06
75740;BME280;64357;51.344;6.550;2023-04-15T09:32:22;100699.03;;;13.42;54.38
75740;BME280;64357;51.344;6.550;2023-04-15T09:34:51;100697.53;;;13.64;53.88
75740;BME280;64357;51.344;6.550;2023-04-15T09:37:34;100703.28;;;14.33;52.57
75740;BME280;64357;51.344;6.550;2023-04-15T09:40:07;100701.75;;;14.87;51.77
75740;BME280;64357;51.344;6.550;2023-04-15T09:42:35;100705.75;;;14.21;52.48
75740;BME280;64357;51.344;6.550;2023-04-15T09:45:10;100710.41;;;13.25;54.83
75740;BME280;64357;51.344;6.550;2023-04-15T09:47:36;100711.81;;;13.21;55.29
75740;BME280;64357;51.344;6.550;2023-04-15T09:50:04;100712.72;;;13.22;55.21
75740;BME280;64357;51.344;6.550;2023-04-15T09:52:30;100706.28;;;13.66;54.92
75740;BME280;64357;51.344;6.550;2023-04-15T09:55:01;100708.53;;;13.32;55.13
75740;BME280;64357;51.344;6.550;2023-04-15T09:57:37;100721.94;;;14.20;53.52
75740;BME280;64357;51.344;6.550;2023-04-15T10:00:04;100726.41;;;14.43;52.15
75740;BME280;64357;51.344;6.550;2023-04-15T10:02:36;100717.06;;;13.93;54.24
75740;BME280;64357;51.344;6.550;2023-04-15T10:05:05;100731.31;;;13.89;54.40
75740;BME280;64357;51.344;6.550;2023-04-15T10:07:39;100731.56;;;13.62;56.27
75740;BME280;64357;51.344;6.550;2023-04-15T10:10:07;100726.03;;;13.67;55.35
75740;BME280;64357;51.344;6.550;2023-04-15T10:12:39;100745.28;;;13.23;56.51
75740;BME280;64357;51.344;6.550;2023-04-15T10:15:14;100745.16;;;13.21;55.50
75740;BME280;64357;51.344;6.550;2023-04-15T10:17:45;100742.16;;;12.88;56.68
75740;BME280;64357;51.344;6.550;2023-04-15T10:20:16;100755.97;;;12.79;57.10
75740;BME280;64357;51.344;6.550;2023-04-15T10:22:45;100740.47;;;12.59;57.70
75740;BME280;64357;51.344;6.550;2023-04-15T10:25:12;100751.88;;;12.81;56.85
75740;BME280;64357;51.344;6.550;2023-04-15T10:27:45;100748.09;;;13.55;55.34
75740;BME280;64357;51.344;6.550;2023-04-15T10:30:25;100756.84;;;13.77;54.92
75740;BME280;64357;51.344;6.550;2023-04-15T10:32:51;100750.19;;;14.20;53.36
75740;BME280;64357;51.344;6.550;2023-04-15T10:35:17;100757.38;;;14.24;52.63
75740;BME280;64357;51.344;6.550;2023-04-15T10:37:47;100756.72;;;15.10;50.82
75740;BME280;64357;51.344;6.550;2023-04-15T10:40:23;100760.09;;;15.31;50.60
75740;BME280;64357;51.344;6.550;2023-04-15T10:42:51;100765.00;;;14.96;51.35
75740;BME280;64357;51.344;6.550;2023-04-15T10:45:17;100760.38;;;15.24;51.17
75740;BME280;64357;51.344;6.550;2023-04-15T10:47:43;100757.13;;;15.04;51.72
75740;BME280;64357;51.344;6.550;2023-04-15T10:50:08;100760.03;;;13.54;56.83
75740;BME280;64357;51.344;6.550;2023-04-15T10:52:34;100767.50;;;13.62;57.42
75740;BME280;64357;51.344;6.550;2023-04-15T10:55:24;100765.59;;;12.82;58.87
75740;BME280;64357;51.344;6.550;2023-04-15T10:57:53;100775.53;;;12.69;59.39
75740;BME280;64357;51.344;6.550;2023-04-15T11:00:19;100772.31;;;12.71;60.30
75740;BME280;64357;51.344;6.550;2023-04-15T11:03:04;100774.53;;;12.77;59.57
75740;BME280;64357;51.344;6.550;2023-04-15T11:08:05;100772.59;;;12.93;59.40
75740;BME280;64357;51.344;6.550;2023-04-15T11:15:49;100776.41;;;14.26;54.30
75740;BME280;64357;51.344;6.550;2023-04-15T11:18:23;100779.59;;;13.93;55.21
75740;BME280;64357;51.344;6.550;2023-04-15T11:21:05;100775.94;;;13.50;56.65
75740;BME280;64357;51.344;6.550;2023-04-15T11:23:33;100784.09;;;12.88;57.84
75740;BME280;64357;51.344;6.550;2023-04-15T11:26:00;100784.13;;;12.69;58.64
75740;BME280;64357;51.344;6.550;2023-04-15T11:28:32;100788.34;;;12.69;58.65
75740;BME280;64357;51.344;6.550;2023-04-15T11:31:02;100782.56;;;12.71;58.47
75740;BME280;64357;51.344;6.550;2023-04-15T11:33:29;100792.84;;;12.52;59.35
75740;BME280;64357;51.344;6.550;2023-04-15T11:35:55;100790.84;;;12.40;59.71
75740;BME280;64357;51.344;6.550;2023-04-15T11:38:20;100792.69;;;12.32;60.98
75740;BME280;64357;51.344;6.550;2023-04-15T11:40:49;100796.50;;;12.46;60.70
75740;BME280;64357;51.344;6.550;2023-04-15T11:43:20;100803.69;;;12.31;61.79
75740;BME280;64357;51.344;6.550;2023-04-15T11:45:53;100816.16;;;12.37;62.18
75740;BME280;64357;51.344;6.550;2023-04-15T11:48:24;100810.91;;;12.35;61.96
75740;BME280;64357;51.344;6.550;2023-04-15T11:50:55;100824.88;;;12.20;62.80
75740;BME280;64357;51.344;6.550;2023-04-15T11:53:20;100814.84;;;12.32;61.28
75740;BME280;64357;51.344;6.550;2023-04-15T11:55:48;100820.06;;;12.79;58.93
75740;BME280;64357;51.344;6.550;2023-04-15T11:58:34;100824.34;;;12.33;60.30
75740;BME280;64357;51.344;6.550;2023-04-15T12:01:01;100826.25;;;12.16;62.03
75740;BME280;64357;51.344;6.550;2023-04-15T12:03:44;100832.16;;;12.53;61.14
75740;BME280;64357;51.344;6.550;2023-04-15T12:06:21;100829.34;;;12.69;60.45
75740;BME280;64357;51.344;6.550;2023-04-15T12:09:14;100833.72;;;12.70;60.28
75740;BME280;64357;51.344;6.550;2023-04-15T12:11:50;100838.56;;;12.20;60.88
75740;BME280;64357;51.344;6.550;2023-04-15T12:14:32;100837.28;;;12.34;61.04
75740;BME280;64357;51.344;6.550;2023-04-15T12:16:58;100844.06;;;12.34;60.66
75740;BME280;64357;51.344;6.550;2023-04-15T12:19:28;100850.06;;;12.15;61.03
75740;BME280;64357;51.344;6.550;2023-04-15T12:22:01;100853.31;;;12.23;61.28
75740;BME280;64357;51.344;6.550;2023-04-15T12:24:30;100856.31;;;12.27;61.09
75740;BME280;64357;51.344;6.550;2023-04-15T12:26:57;100864.50;;;12.42;60.96
75740;BME280;64357;51.344;6.550;2023-04-15T12:29:27;100861.47;;;12.46;60.72
75740;BME280;64357;51.344;6.550;2023-04-15T12:31:57;100859.38;;;12.42;60.90
75740;BME280;64357;51.344;6.550;2023-04-15T12:34:36;100866.47;;;12.36;60.32
75740;BME280;64357;51.344;6.550;2023-04-15T12:37:04;100876.72;;;12.36;60.54
75740;BME280;64357;51.344;6.550;2023-04-15T12:39:33;100872.44;;;12.26;60.93
75740;BME280;64357;51.344;6.550;2023-04-15T12:41:59;100877.88;;;12.48;60.96
75740;BME280;64357;51.344;6.550;2023-04-15T12:44:25;100884.47;;;12.55;60.64
75740;BME280;64357;51.344;6.550;2023-04-15T12:46:51;100876.09;;;12.66;60.50
75740;BME280;64357;51.344;6.550;2023-04-15T12:49:17;100880.38;;;12.57;60.88
75740;BME280;64357;51.344;6.550;2023-04-15T12:51:49;100885.94;;;12.34;62.05
75740;BME280;64357;51.344;6.550;2023-04-15T12:54:16;100879.69;;;12.22;62.84
75740;BME280;64357;51.344;6.550;2023-04-15T12:56:41;100898.88;;;12.36;62.95
75740;BME280;64357;51.344;6.550;2023-04-15T12:59:07;100905.38;;;12.05;63.54
75740;BME280;64357;51.344;6.550;2023-04-15T13:01:33;100912.78;;;11.93;64.09
75740;BME280;64357;51.344;6.550;2023-04-15T13:03:59;100922.59;;;11.97;63.52
75740;BME280;64357;51.344;6.550;2023-04-15T13:06:25;100911.19;;;11.67;64.20
75740;BME280;64357;51.344;6.550;2023-04-15T13:08:53;100913.75;;;11.67;64.35